sensor_id;sensor_type;location;lat;lon;timestamp;P1;durP1;ratioP1;P2;durP2;ratioP2
76599;SDS011;65489;52.048;6.090;2023-07-31T00:00:30;0.77;;;0.60;;
76599;SDS011;65489;52.048;6.090;2023-07-31T00:02:55;0.50;;;0.30;;
76599;SDS011;65489;52.048;6.090;2023-07-31T00:05:21;0.82;;;0.60;;
76599;SDS011;65489;52.048;6.090;2023-07-31T00:07:46;1.15;;;0.50;;
76599;SDS011;65489;52.048;6.090;2023-07-31T00:10:12;0.93;;;0.40;;
76599;SDS011;65489;52.048;6.090;2023-07-31T00:12:41;1.30;;;0.57;;
76599;SDS011;65489;52.048;6.090;2023-07-31T00:15:07;0.70;;;0.52;;
76599;SDS011;65489;52.048;6.090;2023-07-31T00:17:33;0.82;;;0.60;;
76599;SDS011;65489;52.048;6.090;2023-07-31T00:19:59;0.95;;;0.57;;
76599;SDS011;65489;52.048;6.090;2023-07-31T00:22:24;2.35;;;0.40;;
76599;SDS011;65489;52.048;6.090;2023-07-31T00:24:50;0.68;;;0.50;;
76599;SDS011;65489;52.048;6.090;2023-07-31T00:27:15;0.75;;;0.47;;
76599;SDS011;65489;52.048;6.090;2023-07-31T00:29:42;0.75;;;0.50;;
76599;SDS011;65489;52.048;6.090;2023-07-31T00:32:08;0.70;;;0.60;;
76599;SDS011;65489;52.048;6.090;2023-07-31T00:34:36;0.85;;;0.47;;
76599;SDS011;65489;52.048;6.090;2023-07-31T00:37:02;0.50;;;0.43;;
76599;SDS011;65489;52.048;6.090;2023-07-31T00:39:29;1.80;;;0.47;;
76599;SDS011;65489;52.048;6.090;2023-07-31T00:41:55;1.17;;;0.50;;
76599;SDS011;65489;52.048;6.090;2023-07-31T00:44:20;0.70;;;0.50;;
76599;SDS011;65489;52.048;6.090;2023-07-31T00:46:46;1.23;;;0.57;;
76599;SDS011;65489;52.048;6.090;2023-07-31T00:49:11;1.23;;;0.57;;
76599;SDS011;65489;52.048;6.090;2023-07-31T00:51:37;0.70;;;0.50;;
76599;SDS011;65489;52.048;6.090;2023-07-31T00:54:03;1.95;;;0.40;;
76599;SDS011;65489;52.048;6.090;2023-07-31T00:56:29;0.60;;;0.50;;
76599;SDS011;65489;52.048;6.090;2023-07-31T00:58:54;1.17;;;0.40;;
76599;SDS011;65489;52.048;6.090;2023-07-31T01:01:20;2.00;;;0.52;;
76599;SDS011;65489;52.048;6.090;2023-07-31T01:03:46;0.70;;;0.40;;
76599;SDS011;65489;52.048;6.090;2023-07-31T01:11:52;0.70;;;0.57;;
76599;SDS011;65489;52.048;6.090;2023-07-31T01:14:18;0.75;;;0.40;;
76599;SDS011;65489;52.048;6.090;2023-07-31T01:16:44;0.70;;;0.50;;
76599;SDS011;65489;52.048;6.090;2023-07-31T01:19:10;1.15;;;0.45;;
76599;SDS011;65489;52.048;6.090;2023-07-31T01:25:21;0.50;;;0.40;;
76599;SDS011;65489;52.048;6.090;2023-07-31T01:27:26;1.27;;;0.40;;
76599;SDS011;65489;52.048;6.090;2023-07-31T01:29:56;0.90;;;0.50;;
76599;SDS011;65489;52.048;6.090;2023-07-31T01:32:25;0.73;;;0.40;;
76599;SDS011;65489;52.048;6.090;2023-07-31T01:34:52;1.52;;;0.70;;
76599;SDS011;65489;52.048;6.090;2023-07-31T01:37:18;0.85;;;0.40;;
76599;SDS011;65489;52.048;6.090;2023-07-31T01:39:44;0.85;;;0.50;;
76599;SDS011;65489;52.048;6.090;2023-07-31T01:42:10;1.23;;;0.65;;
76599;SDS011;65489;52.048;6.090;2023-07-31T01:44:35;0.93;;;0.57;;
76599;SDS011;65489;52.048;6.090;2023-07-31T01:47:03;1.30;;;0.68;;
76599;SDS011;65489;52.048;6.090;2023-07-31T01:49:29;1.88;;;0.70;;
76599;SDS011;65489;52.048;6.090;2023-07-31T01:51:54;2.65;;;0.75;;
76599;SDS011;65489;52.048;6.090;2023-07-31T01:54:21;1.50;;;0.70;;
76599;SDS011;65489;52.048;6.090;2023-07-31T01:56:46;1.23;;;0.88;;
76599;SDS011;65489;52.048;6.090;2023-07-31T01:59:12;2.70;;;1.20;;
76599;SDS011;65489;52.048;6.090;2023-07-31T02:01:37;1.40;;;0.80;;
76599;SDS011;65489;52.048;6.090;2023-07-31T02:04:03;1.33;;;0.77;;
76599;SDS011;65489;52.048;6.090;2023-07-31T02:06:30;1.52;;;0.80;;
76599;SDS011;65489;52.048;6.090;2023-07-31T02:08:55;1.67;;;0.80;;
76599;SDS011;65489;52.048;6.090;2023-07-31T02:11:20;2.03;;;0.95;;
76599;SDS011;65489;52.048;6.090;2023-07-31T02:13:48;2.47;;;0.95;;
76599;SDS011;65489;52.048;6.090;2023-07-31T02:16:14;1.83;;;1.02;;
76599;SDS011;65489;52.048;6.090;2023-07-31T02:18:40;1.52;;;1.00;;
76599;SDS011;65489;52.048;6.090;2023-07-31T02:21:05;1.77;;;1.10;;
76599;SDS011;65489;52.048;6.090;2023-07-31T02:23:31;2.75;;;1.05;;
76599;SDS011;65489;52.048;6.090;2023-07-31T02:25:56;2.83;;;1.20;;
76599;SDS011;65489;52.048;6.090;2023-07-31T02:28:22;2.00;;;1.02;;
76599;SDS011;65489;52.048;6.090;2023-07-31T02:30:49;3.47;;;1.13;;
76599;SDS011;65489;52.048;6.090;2023-07-31T02:33:15;2.78;;;1.30;;
76599;SDS011;65489;52.048;6.090;2023-07-31T02:35:41;2.72;;;1.27;;
76599;SDS011;65489;52.048;6.090;2023-07-31T02:38:07;2.05;;;0.93;;
76599;SDS011;65489;52.048;6.090;2023-07-31T02:40:32;2.83;;;1.20;;
76599;SDS011;65489;52.048;6.090;2023-07-31T02:42:58;3.83;;;1.40;;
76599;SDS011;65489;52.048;6.090;2023-07-31T02:45:23;2.45;;;1.50;;
76599;SDS011;65489;52.048;6.090;2023-07-31T02:47:49;2.42;;;1.38;;
76599;SDS011;65489;52.048;6.090;2023-07-31T02:50:14;3.08;;;1.40;;
76599;SDS011;65489;52.048;6.090;2023-07-31T02:52:40;3.22;;;1.27;;
76599;SDS011;65489;52.048;6.090;2023-07-31T02:55:05;2.13;;;1.02;;
76599;SDS011;65489;52.048;6.090;2023-07-31T02:57:31;2.45;;;1.50;;
76599;SDS011;65489;52.048;6.090;2023-07-31T02:59:57;2.13;;;1.27;;
76599;SDS011;65489;52.048;6.090;2023-07-31T03:02:22;2.25;;;1.30;;
76599;SDS011;65489;52.048;6.090;2023-07-31T03:04:48;2.15;;;1.10;;
76599;SDS011;65489;52.048;6.090;2023-07-31T03:07:13;2.55;;;1.13;;
76599;SDS011;65489;52.048;6.090;2023-07-31T03:09:39;1.98;;;1.20;;
76599;SDS011;65489;52.048;6.090;2023-07-31T03:12:05;2.38;;;1.20;;
76599;SDS011;65489;52.048;6.090;2023-07-31T03:14:30;2.67;;;1.27;;
76599;SDS011;65489;52.048;6.090;2023-07-31T03:16:56;3.22;;;1.40;;
76599;SDS011;65489;52.048;6.090;2023-07-31T03:19:21;1.65;;;1.20;;
76599;SDS011;65489;52.048;6.090;2023-07-31T03:21:47;2.70;;;1.23;;
76599;SDS011;65489;52.048;6.090;2023-07-31T03:24:12;2.95;;;1.33;;
76599;SDS011;65489;52.048;6.090;2023-07-31T03:26:38;3.38;;;1.55;;
76599;SDS011;65489;52.048;6.090;2023-07-31T03:29:06;2.88;;;1.10;;
76599;SDS011;65489;52.048;6.090;2023-07-31T03:31:32;1.98;;;1.30;;
76599;SDS011;65489;52.048;6.090;2023-07-31T03:33:57;3.00;;;1.25;;
76599;SDS011;65489;52.048;6.090;2023-07-31T03:36:23;1.73;;;1.38;;
76599;SDS011;65489;52.048;6.090;2023-07-31T03:38:48;2.80;;;1.45;;
76599;SDS011;65489;52.048;6.090;2023-07-31T03:41:14;2.58;;;1.48;;
76599;SDS011;65489;52.048;6.090;2023-07-31T03:43:39;3.10;;;1.30;;
76599;SDS011;65489;52.048;6.090;2023-07-31T03:46:05;3.15;;;1.27;;
76599;SDS011;65489;52.048;6.090;2023-07-31T03:48:31;2.72;;;1.48;;
76599;SDS011;65489;52.048;6.090;2023-07-31T03:50:56;4.72;;;1.55;;
76599;SDS011;65489;52.048;6.090;2023-07-31T03:53:22;2.15;;;1.25;;
76599;SDS011;65489;52.048;6.090;2023-07-31T03:55:47;3.13;;;1.63;;
76599;SDS011;65489;52.048;6.090;2023-07-31T03:58:13;1.83;;;1.30;;
76599;SDS011;65489;52.048;6.090;2023-07-31T04:00:39;2.38;;;1.23;;
76599;SDS011;65489;52.048;6.090;2023-07-31T04:03:05;2.65;;;1.40;;
76599;SDS011;65489;52.048;6.090;2023-07-31T04:05:31;2.92;;;1.35;;
76599;SDS011;65489;52.048;6.090;2023-07-31T04:07:57;3.03;;;1.60;;
76599;SDS011;65489;52.048;6.090;2023-07-31T04:10:23;3.03;;;1.60;;
76599;SDS011;65489;52.048;6.090;2023-07-31T04:12:48;2.22;;;1.60;;
76599;SDS011;65489;52.048;6.090;2023-07-31T04:15:14;2.45;;;1.38;;
76599;SDS011;65489;52.048;6.090;2023-07-31T04:17:39;2.40;;;1.60;;
76599;SDS011;65489;52.048;6.090;2023-07-31T04:20:05;3.38;;;1.60;;
76599;SDS011;65489;52.048;6.090;2023-07-31T04:22:30;4.40;;;1.90;;
76599;SDS011;65489;52.048;6.090;2023-07-31T04:24:56;3.80;;;1.70;;
76599;SDS011;65489;52.048;6.090;2023-07-31T04:27:22;2.33;;;1.25;;
76599;SDS011;65489;52.048;6.090;2023-07-31T04:29:47;2.95;;;1.88;;
76599;SDS011;65489;52.048;6.090;2023-07-31T04:32:13;3.10;;;1.55;;
76599;SDS011;65489;52.048;6.090;2023-07-31T04:34:40;2.83;;;1.50;;
76599;SDS011;65489;52.048;6.090;2023-07-31T04:37:06;4.18;;;1.80;;
76599;SDS011;65489;52.048;6.090;2023-07-31T04:39:31;3.25;;;1.50;;
76599;SDS011;65489;52.048;6.090;2023-07-31T04:41:57;3.83;;;1.60;;
76599;SDS011;65489;52.048;6.090;2023-07-31T04:44:22;2.70;;;1.48;;
76599;SDS011;65489;52.048;6.090;2023-07-31T04:46:48;3.53;;;1.70;;
76599;SDS011;65489;52.048;6.090;2023-07-31T04:49:13;2.92;;;1.52;;
76599;SDS011;65489;52.048;6.090;2023-07-31T04:51:39;4.07;;;1.70;;
76599;SDS011;65489;52.048;6.090;2023-07-31T04:54:04;3.10;;;1.65;;
76599;SDS011;65489;52.048;6.090;2023-07-31T04:56:30;4.90;;;1.73;;
76599;SDS011;65489;52.048;6.090;2023-07-31T04:58:55;2.88;;;1.45;;
76599;SDS011;65489;52.048;6.090;2023-07-31T05:01:21;2.53;;;1.50;;
76599;SDS011;65489;52.048;6.090;2023-07-31T05:03:46;3.78;;;1.80;;
76599;SDS011;65489;52.048;6.090;2023-07-31T05:06:12;2.95;;;1.60;;
76599;SDS011;65489;52.048;6.090;2023-07-31T05:08:38;3.00;;;1.70;;
76599;SDS011;65489;52.048;6.090;2023-07-31T05:11:04;2.63;;;1.73;;
76599;SDS011;65489;52.048;6.090;2023-07-31T05:13:29;5.00;;;1.77;;
76599;SDS011;65489;52.048;6.090;2023-07-31T05:15:55;3.00;;;1.73;;
76599;SDS011;65489;52.048;6.090;2023-07-31T05:18:20;4.53;;;1.80;;
76599;SDS011;65489;52.048;6.090;2023-07-31T05:20:46;3.38;;;1.88;;
76599;SDS011;65489;52.048;6.090;2023-07-31T05:23:11;2.88;;;1.60;;
76599;SDS011;65489;52.048;6.090;2023-07-31T05:25:37;3.25;;;1.95;;
76599;SDS011;65489;52.048;6.090;2023-07-31T05:28:02;2.97;;;1.80;;
76599;SDS011;65489;52.048;6.090;2023-07-31T05:30:29;2.85;;;1.65;;
76599;SDS011;65489;52.048;6.090;2023-07-31T05:32:55;4.10;;;1.77;;
76599;SDS011;65489;52.048;6.090;2023-07-31T05:35:20;4.55;;;1.75;;
76599;SDS011;65489;52.048;6.090;2023-07-31T05:37:46;3.30;;;1.75;;
76599;SDS011;65489;52.048;6.090;2023-07-31T05:40:11;3.47;;;1.70;;
76599;SDS011;65489;52.048;6.090;2023-07-31T05:42:37;2.78;;;1.63;;
76599;SDS011;65489;52.048;6.090;2023-07-31T05:45:04;3.78;;;1.77;;
76599;SDS011;65489;52.048;6.090;2023-07-31T05:47:31;5.65;;;1.90;;
76599;SDS011;65489;52.048;6.090;2023-07-31T05:49:56;3.85;;;1.70;;
76599;SDS011;65489;52.048;6.090;2023-07-31T05:52:22;3.95;;;1.67;;
76599;SDS011;65489;52.048;6.090;2023-07-31T05:54:47;3.15;;;1.60;;
76599;SDS011;65489;52.048;6.090;2023-07-31T05:57:13;3.17;;;1.73;;
76599;SDS011;65489;52.048;6.090;2023-07-31T05:59:38;3.70;;;1.75;;
76599;SDS011;65489;52.048;6.090;2023-07-31T06:02:04;3.72;;;1.52;;
76599;SDS011;65489;52.048;6.090;2023-07-31T06:04:30;2.53;;;1.65;;
76599;SDS011;65489;52.048;6.090;2023-07-31T06:06:55;1.98;;;1.42;;
76599;SDS011;65489;52.048;6.090;2023-07-31T06:09:21;3.20;;;1.70;;
76599;SDS011;65489;52.048;6.090;2023-07-31T06:11:46;4.05;;;1.70;;
76599;SDS011;65489;52.048;6.090;2023-07-31T06:14:12;2.95;;;1.67;;
76599;SDS011;65489;52.048;6.090;2023-07-31T06:16:38;3.40;;;1.75;;
76599;SDS011;65489;52.048;6.090;2023-07-31T06:19:03;5.13;;;1.90;;
76599;SDS011;65489;52.048;6.090;2023-07-31T06:21:29;2.70;;;1.55;;
76599;SDS011;65489;52.048;6.090;2023-07-31T06:23:55;3.95;;;1.70;;
76599;SDS011;65489;52.048;6.090;2023-07-31T06:26:20;2.53;;;1.70;;
76599;SDS011;65489;52.048;6.090;2023-07-31T06:28:46;3.22;;;1.75;;
76599;SDS011;65489;52.048;6.090;2023-07-31T06:31:11;3.58;;;1.52;;
76599;SDS011;65489;52.048;6.090;2023-07-31T06:33:37;2.97;;;1.67;;
76599;SDS011;65489;52.048;6.090;2023-07-31T06:36:02;2.35;;;1.55;;
76599;SDS011;65489;52.048;6.090;2023-07-31T06:38:28;3.72;;;1.50;;
76599;SDS011;65489;52.048;6.090;2023-07-31T06:40:54;4.07;;;1.92;;
76599;SDS011;65489;52.048;6.090;2023-07-31T06:43:19;2.70;;;1.50;;
76599;SDS011;65489;52.048;6.090;2023-07-31T06:45:45;3.78;;;1.52;;
76599;SDS011;65489;52.048;6.090;2023-07-31T06:48:11;2.90;;;1.60;;
76599;SDS011;65489;52.048;6.090;2023-07-31T06:50:37;2.20;;;1.40;;
76599;SDS011;65489;52.048;6.090;2023-07-31T06:53:02;2.60;;;1.58;;
76599;SDS011;65489;52.048;6.090;2023-07-31T06:55:28;2.38;;;1.58;;
76599;SDS011;65489;52.048;6.090;2023-07-31T06:57:54;2.80;;;1.27;;
76599;SDS011;65489;52.048;6.090;2023-07-31T07:00:20;2.35;;;1.60;;
76599;SDS011;65489;52.048;6.090;2023-07-31T07:02:47;2.53;;;1.60;;
76599;SDS011;65489;52.048;6.090;2023-07-31T07:05:13;2.15;;;1.42;;
76599;SDS011;65489;52.048;6.090;2023-07-31T07:07:40;4.80;;;1.67;;
76599;SDS011;65489;52.048;6.090;2023-07-31T07:10:06;2.50;;;1.60;;
76599;SDS011;65489;52.048;6.090;2023-07-31T07:12:32;2.83;;;1.52;;
76599;SDS011;65489;52.048;6.090;2023-07-31T07:14:58;2.70;;;1.50;;
76599;SDS011;65489;52.048;6.090;2023-07-31T07:17:24;2.03;;;1.30;;
76599;SDS011;65489;52.048;6.090;2023-07-31T07:19:50;3.80;;;1.67;;
76599;SDS011;65489;52.048;6.090;2023-07-31T07:22:16;2.22;;;1.33;;
76599;SDS011;65489;52.048;6.090;2023-07-31T07:24:41;2.58;;;1.58;;
76599;SDS011;65489;52.048;6.090;2023-07-31T07:27:07;1.70;;;1.10;;
76599;SDS011;65489;52.048;6.090;2023-07-31T07:29:38;3.40;;;1.45;;
76599;SDS011;65489;52.048;6.090;2023-07-31T07:32:04;2.45;;;1.25;;
76599;SDS011;65489;52.048;6.090;2023-07-31T07:34:30;2.67;;;1.48;;
76599;SDS011;65489;52.048;6.090;2023-07-31T07:36:55;2.45;;;1.33;;
76599;SDS011;65489;52.048;6.090;2023-07-31T07:39:21;2.50;;;1.40;;
76599;SDS011;65489;52.048;6.090;2023-07-31T07:41:46;1.67;;;1.08;;
76599;SDS011;65489;52.048;6.090;2023-07-31T07:44:12;2.08;;;1.45;;
76599;SDS011;65489;52.048;6.090;2023-07-31T07:46:38;3.83;;;1.45;;
76599;SDS011;65489;52.048;6.090;2023-07-31T07:49:04;3.67;;;1.58;;
76599;SDS011;65489;52.048;6.090;2023-07-31T07:51:30;3.53;;;1.60;;
76599;SDS011;65489;52.048;6.090;2023-07-31T07:53:56;4.55;;;1.67;;
76599;SDS011;65489;52.048;6.090;2023-07-31T07:56:25;2.97;;;1.80;;
76599;SDS011;65489;52.048;6.090;2023-07-31T07:58:51;4.43;;;1.63;;
76599;SDS011;65489;52.048;6.090;2023-07-31T08:01:17;3.92;;;1.55;;
76599;SDS011;65489;52.048;6.090;2023-07-31T08:03:42;3.10;;;1.60;;
76599;SDS011;65489;52.048;6.090;2023-07-31T08:06:08;3.38;;;1.70;;
76599;SDS011;65489;52.048;6.090;2023-07-31T08:08:34;3.75;;;1.52;;
76599;SDS011;65489;52.048;6.090;2023-07-31T08:11:00;4.78;;;1.63;;
76599;SDS011;65489;52.048;6.090;2023-07-31T08:13:26;4.00;;;1.40;;
76599;SDS011;65489;52.048;6.090;2023-07-31T08:15:51;4.72;;;1.95;;
76599;SDS011;65489;52.048;6.090;2023-07-31T08:18:17;3.85;;;1.42;;
76599;SDS011;65489;52.048;6.090;2023-07-31T08:20:42;4.22;;;1.50;;
76599;SDS011;65489;52.048;6.090;2023-07-31T08:23:08;4.18;;;1.40;;
76599;SDS011;65489;52.048;6.090;2023-07-31T08:25:34;6.97;;;2.45;;
76599;SDS011;65489;52.048;6.090;2023-07-31T08:28:01;4.88;;;1.90;;
76599;SDS011;65489;52.048;6.090;2023-07-31T08:30:26;5.82;;;2.13;;
76599;SDS011;65489;52.048;6.090;2023-07-31T08:32:52;4.32;;;1.90;;
76599;SDS011;65489;52.048;6.090;2023-07-31T08:35:17;7.72;;;2.53;;
76599;SDS011;65489;52.048;6.090;2023-07-31T08:37:43;5.00;;;2.10;;
76599;SDS011;65489;52.048;6.090;2023-07-31T08:40:08;8.15;;;2.38;;
76599;SDS011;65489;52.048;6.090;2023-07-31T08:42:42;7.20;;;2.60;;
76599;SDS011;65489;52.048;6.090;2023-07-31T08:45:14;8.32;;;2.95;;
76599;SDS011;65489;52.048;6.090;2023-07-31T08:47:44;6.72;;;2.85;;
76599;SDS011;65489;52.048;6.090;2023-07-31T08:50:15;8.82;;;2.75;;
76599;SDS011;65489;52.048;6.090;2023-07-31T08:52:41;9.57;;;3.25;;
76599;SDS011;65489;52.048;6.090;2023-07-31T08:55:07;7.22;;;2.42;;
76599;SDS011;65489;52.048;6.090;2023-07-31T08:57:36;7.15;;;2.60;;
76599;SDS011;65489;52.048;6.090;2023-07-31T09:00:06;5.53;;;2.15;;
76599;SDS011;65489;52.048;6.090;2023-07-31T09:05:07;8.93;;;2.47;;
76599;SDS011;65489;52.048;6.090;2023-07-31T09:07:36;6.53;;;2.17;;
76599;SDS011;65489;52.048;6.090;2023-07-31T09:12:28;5.40;;;1.85;;
76599;SDS011;65489;52.048;6.090;2023-07-31T09:14:53;4.85;;;1.80;;
76599;SDS011;65489;52.048;6.090;2023-07-31T09:17:31;5.07;;;2.15;;
76599;SDS011;65489;52.048;6.090;2023-07-31T09:22:33;3.20;;;1.38;;
76599;SDS011;65489;52.048;6.090;2023-07-31T09:25:15;3.30;;;1.50;;
76599;SDS011;65489;52.048;6.090;2023-07-31T09:30:17;4.03;;;1.33;;
76599;SDS011;65489;52.048;6.090;2023-07-31T09:32:43;3.10;;;1.30;;
76599;SDS011;65489;52.048;6.090;2023-07-31T09:35:28;2.60;;;1.20;;
76599;SDS011;65489;52.048;6.090;2023-07-31T09:37:57;2.78;;;1.20;;
76599;SDS011;65489;52.048;6.090;2023-07-31T09:40:24;2.33;;;1.00;;
76599;SDS011;65489;52.048;6.090;2023-07-31T09:42:55;3.17;;;1.02;;
76599;SDS011;65489;52.048;6.090;2023-07-31T09:45:33;2.65;;;1.10;;
76599;SDS011;65489;52.048;6.090;2023-07-31T09:48:00;2.47;;;1.00;;
76599;SDS011;65489;52.048;6.090;2023-07-31T09:50:25;1.73;;;1.00;;
76599;SDS011;65489;52.048;6.090;2023-07-31T09:52:51;2.25;;;0.90;;
76599;SDS011;65489;52.048;6.090;2023-07-31T09:55:17;1.45;;;0.80;;
76599;SDS011;65489;52.048;6.090;2023-07-31T09:57:45;1.58;;;0.88;;
76599;SDS011;65489;52.048;6.090;2023-07-31T10:00:12;1.27;;;0.80;;
76599;SDS011;65489;52.048;6.090;2023-07-31T10:02:40;2.38;;;0.95;;
76599;SDS011;65489;52.048;6.090;2023-07-31T10:05:06;0.90;;;0.57;;
76599;SDS011;65489;52.048;6.090;2023-07-31T10:07:36;1.13;;;0.60;;
76599;SDS011;65489;52.048;6.090;2023-07-31T10:10:03;0.95;;;0.60;;
76599;SDS011;65489;52.048;6.090;2023-07-31T10:12:29;1.48;;;0.60;;
76599;SDS011;65489;52.048;6.090;2023-07-31T10:14:57;2.03;;;0.90;;
76599;SDS011;65489;52.048;6.090;2023-07-31T10:17:24;1.48;;;0.60;;
76599;SDS011;65489;52.048;6.090;2023-07-31T10:19:50;1.40;;;0.80;;
76599;SDS011;65489;52.048;6.090;2023-07-31T10:22:16;1.05;;;0.68;;
76599;SDS011;65489;52.048;6.090;2023-07-31T10:24:43;1.10;;;0.60;;
76599;SDS011;65489;52.048;6.090;2023-07-31T10:27:10;0.88;;;0.60;;
76599;SDS011;65489;52.048;6.090;2023-07-31T10:29:37;0.93;;;0.60;;
76599;SDS011;65489;52.048;6.090;2023-07-31T10:32:03;1.70;;;0.63;;
76599;SDS011;65489;52.048;6.090;2023-07-31T10:34:33;1.10;;;0.70;;
76599;SDS011;65489;52.048;6.090;2023-07-31T10:44:59;1.73;;;0.80;;
76599;SDS011;65489;52.048;6.090;2023-07-31T10:47:26;0.95;;;0.60;;
76599;SDS011;65489;52.048;6.090;2023-07-31T10:49:51;0.85;;;0.60;;
76599;SDS011;65489;52.048;6.090;2023-07-31T10:52:21;0.85;;;0.60;;
76599;SDS011;65489;52.048;6.090;2023-07-31T10:55:38;1.77;;;0.80;;
76599;SDS011;65489;52.048;6.090;2023-07-31T10:57:44;0.95;;;0.60;;
76599;SDS011;65489;52.048;6.090;2023-07-31T11:06:09;2.92;;;0.75;;
76599;SDS011;65489;52.048;6.090;2023-07-31T11:10:42;1.33;;;0.80;;
76599;SDS011;65489;52.048;6.090;2023-07-31T11:13:08;1.30;;;0.90;;
76599;SDS011;65489;52.048;6.090;2023-07-31T11:15:34;0.75;;;0.70;;
76599;SDS011;65489;52.048;6.090;2023-07-31T11:18:00;1.23;;;0.90;;
76599;SDS011;65489;52.048;6.090;2023-07-31T11:20:29;1.38;;;0.90;;
76599;SDS011;65489;52.048;6.090;2023-07-31T11:22:57;1.38;;;0.90;;
76599;SDS011;65489;52.048;6.090;2023-07-31T11:25:24;1.35;;;0.77;;
76599;SDS011;65489;52.048;6.090;2023-07-31T11:27:49;1.52;;;0.90;;
76599;SDS011;65489;52.048;6.090;2023-07-31T11:32:44;0.98;;;0.70;;
76599;SDS011;65489;52.048;6.090;2023-07-31T11:35:12;1.25;;;0.85;;
76599;SDS011;65489;52.048;6.090;2023-07-31T11:37:41;1.20;;;0.90;;
76599;SDS011;65489;52.048;6.090;2023-07-31T11:40:07;1.42;;;1.00;;
76599;SDS011;65489;52.048;6.090;2023-07-31T11:42:33;1.10;;;0.90;;
76599;SDS011;65489;52.048;6.090;2023-07-31T11:45:01;2.13;;;0.93;;
76599;SDS011;65489;52.048;6.090;2023-07-31T11:47:33;1.38;;;0.75;;
76599;SDS011;65489;52.048;6.090;2023-07-31T11:50:02;2.33;;;0.98;;
76599;SDS011;65489;52.048;6.090;2023-07-31T11:52:29;1.00;;;0.90;;
76599;SDS011;65489;52.048;6.090;2023-07-31T11:54:57;1.40;;;0.90;;
76599;SDS011;65489;52.048;6.090;2023-07-31T11:57:22;1.45;;;1.10;;
76599;SDS011;65489;52.048;6.090;2023-07-31T11:59:48;1.98;;;1.13;;
76599;SDS011;65489;52.048;6.090;2023-07-31T12:02:14;1.48;;;1.05;;
76599;SDS011;65489;52.048;6.090;2023-07-31T12:04:40;1.52;;;1.00;;
76599;SDS011;65489;52.048;6.090;2023-07-31T12:07:06;0.98;;;0.80;;
76599;SDS011;65489;52.048;6.090;2023-07-31T12:09:31;0.82;;;0.70;;
76599;SDS011;65489;52.048;6.090;2023-07-31T12:11:57;1.20;;;0.90;;
76599;SDS011;65489;52.048;6.090;2023-07-31T12:14:27;1.20;;;0.90;;
76599;SDS011;65489;52.048;6.090;2023-07-31T12:16:56;1.95;;;1.10;;
76599;SDS011;65489;52.048;6.090;2023-07-31T12:19:23;1.10;;;0.85;;
76599;SDS011;65489;52.048;6.090;2023-07-31T12:21:51;0.90;;;0.70;;
76599;SDS011;65489;52.048;6.090;2023-07-31T12:24:18;2.03;;;0.70;;
76599;SDS011;65489;52.048;6.090;2023-07-31T12:26:45;1.33;;;0.98;;
76599;SDS011;65489;52.048;6.090;2023-07-31T12:29:12;1.42;;;1.10;;
76599;SDS011;65489;52.048;6.090;2023-07-31T12:31:37;7.22;;;0.90;;
76599;SDS011;65489;52.048;6.090;2023-07-31T12:34:14;1.02;;;0.88;;
76599;SDS011;65489;52.048;6.090;2023-07-31T12:36:41;2.25;;;0.82;;
76599;SDS011;65489;52.048;6.090;2023-07-31T12:39:07;1.38;;;0.90;;
76599;SDS011;65489;52.048;6.090;2023-07-31T12:41:33;1.33;;;0.90;;
76599;SDS011;65489;52.048;6.090;2023-07-31T12:43:58;1.85;;;0.85;;
76599;SDS011;65489;52.048;6.090;2023-07-31T12:46:24;1.65;;;0.93;;
76599;SDS011;65489;52.048;6.090;2023-07-31T12:48:49;1.65;;;1.00;;
76599;SDS011;65489;52.048;6.090;2023-07-31T12:51:15;1.75;;;1.00;;
76599;SDS011;65489;52.048;6.090;2023-07-31T12:53:40;1.38;;;1.00;;
76599;SDS011;65489;52.048;6.090;2023-07-31T12:56:06;2.20;;;1.00;;
76599;SDS011;65489;52.048;6.090;2023-07-31T12:58:31;3.97;;;0.98;;
76599;SDS011;65489;52.048;6.090;2023-07-31T13:00:57;2.50;;;1.05;;
76599;SDS011;65489;52.048;6.090;2023-07-31T13:03:22;1.42;;;1.00;;
76599;SDS011;65489;52.048;6.090;2023-07-31T13:05:48;3.00;;;0.93;;
76599;SDS011;65489;52.048;6.090;2023-07-31T13:08:13;2.60;;;0.82;;
76599;SDS011;65489;52.048;6.090;2023-07-31T13:10:41;1.23;;;0.90;;
76599;SDS011;65489;52.048;6.090;2023-07-31T13:13:06;2.70;;;1.00;;
76599;SDS011;65489;52.048;6.090;2023-07-31T13:15:32;1.55;;;0.95;;
76599;SDS011;65489;52.048;6.090;2023-07-31T13:17:57;1.13;;;0.90;;
76599;SDS011;65489;52.048;6.090;2023-07-31T13:20:23;2.40;;;1.00;;
76599;SDS011;65489;52.048;6.090;2023-07-31T13:22:48;2.15;;;0.85;;
76599;SDS011;65489;52.048;6.090;2023-07-31T13:25:14;2.28;;;1.20;;
76599;SDS011;65489;52.048;6.090;2023-07-31T13:27:39;2.67;;;0.85;;
76599;SDS011;65489;52.048;6.090;2023-07-31T13:30:05;2.85;;;0.95;;
76599;SDS011;65489;52.048;6.090;2023-07-31T13:32:31;2.40;;;1.00;;
76599;SDS011;65489;52.048;6.090;2023-07-31T13:34:57;2.55;;;1.00;;
76599;SDS011;65489;52.048;6.090;2023-07-31T13:37:22;1.60;;;0.93;;
76599;SDS011;65489;52.048;6.090;2023-07-31T13:39:48;1.25;;;0.80;;
76599;SDS011;65489;52.048;6.090;2023-07-31T13:42:13;1.45;;;0.88;;
76599;SDS011;65489;52.048;6.090;2023-07-31T13:44:39;1.42;;;0.88;;
76599;SDS011;65489;52.048;6.090;2023-07-31T13:47:05;3.58;;;0.82;;
76599;SDS011;65489;52.048;6.090;2023-07-31T13:49:31;4.18;;;0.90;;
76599;SDS011;65489;52.048;6.090;2023-07-31T13:51:57;1.17;;;0.80;;
76599;SDS011;65489;52.048;6.090;2023-07-31T13:54:23;1.38;;;0.82;;
76599;SDS011;65489;52.048;6.090;2023-07-31T13:56:49;2.58;;;0.82;;
76599;SDS011;65489;52.048;6.090;2023-07-31T13:59:14;1.63;;;0.70;;
76599;SDS011;65489;52.048;6.090;2023-07-31T14:01:41;1.17;;;0.90;;
76599;SDS011;65489;52.048;6.090;2023-07-31T14:04:07;1.40;;;0.90;;
76599;SDS011;65489;52.048;6.090;2023-07-31T14:06:33;2.33;;;0.70;;
76599;SDS011;65489;52.048;6.090;2023-07-31T14:08:59;1.20;;;0.80;;
76599;SDS011;65489;52.048;6.090;2023-07-31T14:11:24;1.33;;;0.90;;
76599;SDS011;65489;52.048;6.090;2023-07-31T14:13:50;1.45;;;0.77;;
76599;SDS011;65489;52.048;6.090;2023-07-31T14:16:16;1.13;;;0.80;;
76599;SDS011;65489;52.048;6.090;2023-07-31T14:18:42;1.42;;;0.82;;
76599;SDS011;65489;52.048;6.090;2023-07-31T14:21:08;1.92;;;0.88;;
76599;SDS011;65489;52.048;6.090;2023-07-31T14:23:33;1.35;;;0.90;;
76599;SDS011;65489;52.048;6.090;2023-07-31T14:25:59;1.67;;;0.90;;
76599;SDS011;65489;52.048;6.090;2023-07-31T14:28:24;1.77;;;0.93;;
76599;SDS011;65489;52.048;6.090;2023-07-31T14:30:50;1.17;;;0.88;;
76599;SDS011;65489;52.048;6.090;2023-07-31T14:33:16;1.08;;;0.88;;
76599;SDS011;65489;52.048;6.090;2023-07-31T14:35:41;1.55;;;1.00;;
76599;SDS011;65489;52.048;6.090;2023-07-31T14:38:07;0.77;;;0.75;;
76599;SDS011;65489;52.048;6.090;2023-07-31T14:40:32;1.83;;;0.90;;
76599;SDS011;65489;52.048;6.090;2023-07-31T14:42:58;1.55;;;0.90;;
76599;SDS011;65489;52.048;6.090;2023-07-31T14:45:23;0.80;;;0.63;;
76599;SDS011;65489;52.048;6.090;2023-07-31T14:47:49;1.38;;;1.15;;
76599;SDS011;65489;52.048;6.090;2023-07-31T14:50:14;2.40;;;1.00;;
76599;SDS011;65489;52.048;6.090;2023-07-31T14:52:40;1.00;;;0.90;;
76599;SDS011;65489;52.048;6.090;2023-07-31T14:55:05;1.05;;;0.80;;
76599;SDS011;65489;52.048;6.090;2023-07-31T14:57:31;1.95;;;1.20;;
76599;SDS011;65489;52.048;6.090;2023-07-31T14:59:56;1.20;;;0.80;;
76599;SDS011;65489;52.048;6.090;2023-07-31T15:02:22;2.03;;;0.90;;
76599;SDS011;65489;52.048;6.090;2023-07-31T15:04:47;1.50;;;1.00;;
76599;SDS011;65489;52.048;6.090;2023-07-31T15:07:13;2.40;;;0.90;;
76599;SDS011;65489;52.048;6.090;2023-07-31T15:09:39;2.00;;;0.90;;
76599;SDS011;65489;52.048;6.090;2023-07-31T15:12:05;0.95;;;0.80;;
76599;SDS011;65489;52.048;6.090;2023-07-31T15:14:30;1.40;;;0.93;;
76599;SDS011;65489;52.048;6.090;2023-07-31T15:16:56;1.60;;;0.90;;
76599;SDS011;65489;52.048;6.090;2023-07-31T15:19:22;0.90;;;0.80;;